Etusivu
METAR-TAF:

METAR-TAF

Lentoasemat :

Pittsburgh International Airport

Pittsburgh, Pennsylvania, Yhdysvallat

Leveyspiiri: 40-30-14N, Pituuspiiri: 080-15-59W, korkeus merenpinnasta: 366 m

Tämänhetkinen sää

Tämä raportti tehtiin 50 minuuttia sitten, kello 20.51 UTC
Tuuli 4 kn eri suunnista
Lämpötila 27°C
Kosteus 26%
Ilmanpaine 1021 hPa
Näkyvyys: 16.1 km
selkeää

METAR: KPIT 242051Z VRB04KT 10SM CLR 27/06 A3016 RMK AO2 SLP214 T02720056 58019

Aika: 17:41 (21:41 UTC)

Sääennuste

Tämä raportti tehtiin 47 minuuttia sitten, kello 20.54 UTC
Ennuste voimassa 24. päivästä klo 21 UTC - 25. päivään klo 24 UTC
Tuuli 3 kn eri suunnista
Näkyvyys: 10 km
selkeää
From 25. päivästä klo 1800 UTC
Tuuli 7 kn lounaasta
Näkyvyys: 10 km
Hajanaisia pilviä 4500 ft:n korkeudessa

TAF: KPIT 242054Z 2421/2524 VRB03KT P6SM SKC FM251800 22007KT P6SM SCT045

Säähavainnot ja -ennusteet yli 4000 lentoasemalta (METAR- ja TAF-raportit).

Käytössä olevat sääasemat on merkitty karttaan keltaisilla ja punaisilla pisteillä.

Aseta hiiri pisteen päälle nähdäksesi sääaseman nimen.

Klikkaa sitten nähdäksesi säähavainnot ja -ennusteet.

Kartan vaihtaminen: klikkaa mustalla rastilla varustettuja vihreitä pisteitä, niin voit zoomata sisään; viivalla varustettua vihreää pistettä, niin voit zoomata ulos tai vihreitä nuolia, niin pääset viereisille kartoille.


METAR-TAF: